createdAt,value
2019-03-09T00:01:58.514Z,7.60
2019-03-09T00:04:28.414Z,7.60
2019-03-09T00:06:57.111Z,7.60
2019-03-09T00:09:28.527Z,7.60
2019-03-09T00:11:57.396Z,7.60
2019-03-09T00:14:27.598Z,7.50
2019-03-09T00:17:02.169Z,7.50
2019-03-09T00:19:30.649Z,7.50
2019-03-09T00:22:00.703Z,7.40
2019-03-09T00:24:37.973Z,7.30
2019-03-09T00:27:17.062Z,7.30
2019-03-09T00:29:58.537Z,7.30
2019-03-09T00:32:27.067Z,7.30
2019-03-09T00:34:55.784Z,7.30
2019-03-09T00:37:25.477Z,7.20
2019-03-09T00:39:54.009Z,7.20
2019-03-09T00:42:23.627Z,7.20
2019-03-09T00:44:52.489Z,7.10
2019-03-09T00:47:23.999Z,7.20
2019-03-09T00:49:57.165Z,7.10
2019-03-09T00:52:25.729Z,7.10
2019-03-09T00:54:54.255Z,7.20
2019-03-09T00:57:25.115Z,7.20
2019-03-09T00:59:57.168Z,7.20
2019-03-09T01:02:28.932Z,7.20
2019-03-09T01:04:59.074Z,7.20
2019-03-09T01:07:28.888Z,7.20
2019-03-09T01:10:00.118Z,7.10
2019-03-09T01:12:29.054Z,7.10
2019-03-09T01:14:57.608Z,7.10
2019-03-09T01:17:27.597Z,7.10
2019-03-09T01:19:56.176Z,7.20
2019-03-09T01:22:24.670Z,7.20
2019-03-09T01:24:53.192Z,7.20
2019-03-09T01:27:22.801Z,7.20
2019-03-09T01:29:51.266Z,7.30
2019-03-09T01:32:21.776Z,7.30
2019-03-09T01:34:50.354Z,7.30
2019-03-09T01:37:20.104Z,7.30
2019-03-09T01:39:48.899Z,7.40
2019-03-09T01:42:18.347Z,7.40
2019-03-09T01:44:47.812Z,7.40
2019-03-09T01:47:16.277Z,7.40
2019-03-09T01:49:44.776Z,7.40
2019-03-09T01:52:16.356Z,7.40
2019-03-09T01:54:44.819Z,7.40
2019-03-09T01:57:17.314Z,7.40
2019-03-09T01:59:45.770Z,7.40
2019-03-09T02:02:14.507Z,7.40
2019-03-09T02:04:43.014Z,7.40
2019-03-09T02:07:13.122Z,7.40
2019-03-09T02:09:44.995Z,7.40
2019-03-09T02:12:15.183Z,7.40
2019-03-09T02:14:43.678Z,7.50
2019-03-09T02:17:12.207Z,7.50
2019-03-09T02:19:42.552Z,7.50
2019-03-09T02:22:11.007Z,7.50
2019-03-09T02:24:39.743Z,7.50
2019-03-09T02:27:13.445Z,7.50
2019-03-09T02:29:42.997Z,7.50
2019-03-09T02:32:14.062Z,7.50
2019-03-09T02:34:43.785Z,7.50
2019-03-09T02:37:14.837Z,7.50
2019-03-09T02:39:54.112Z,7.50
2019-03-09T02:42:24.956Z,7.50
2019-03-09T02:44:53.498Z,7.60
2019-03-09T02:47:21.984Z,7.60
2019-03-09T02:50:11.321Z,7.60
2019-03-09T02:52:39.973Z,7.60
2019-03-09T02:55:11.109Z,7.60
2019-03-09T02:57:39.643Z,7.60
2019-03-09T03:00:11.804Z,7.60
2019-03-09T03:02:42.110Z,7.70
2019-03-09T03:05:10.921Z,7.70
2019-03-09T03:07:42.273Z,7.70
2019-03-09T03:10:11.053Z,7.70
2019-03-09T03:12:40.573Z,7.70
2019-03-09T03:15:16.118Z,7.80
2019-03-09T03:17:46.504Z,7.70
2019-03-09T03:20:15.271Z,7.80
2019-03-09T03:22:43.864Z,7.80
2019-03-09T03:25:12.356Z,7.80
2019-03-09T03:27:41.909Z,7.80
2019-03-09T03:30:32.697Z,7.80
2019-03-09T03:33:05.469Z,7.90
2019-03-09T03:35:41.336Z,7.90
2019-03-09T03:38:10.095Z,7.90
2019-03-09T03:40:40.330Z,7.90
2019-03-09T03:43:09.390Z,7.90
2019-03-09T03:45:38.020Z,8.00
2019-03-09T03:48:06.476Z,8.00
2019-03-09T03:50:36.348Z,8.00
2019-03-09T03:53:06.936Z,8.00
2019-03-09T03:55:35.458Z,8.10
2019-03-09T03:58:05.535Z,8.10
2019-03-09T04:00:34.179Z,8.10
2019-03-09T04:03:05.583Z,8.10
2019-03-09T04:05:35.196Z,8.10
2019-03-09T04:08:26.333Z,8.20
2019-03-09T04:10:56.518Z,8.20
2019-03-09T04:13:26.536Z,8.20
2019-03-09T04:15:56.623Z,8.20
2019-03-09T04:18:28.076Z,8.30
2019-03-09T04:20:57.648Z,8.30
2019-03-09T04:23:27.474Z,8.30
2019-03-09T04:25:55.973Z,8.40
2019-03-09T04:28:26.206Z,8.40
2019-03-09T04:30:55.968Z,8.40
2019-03-09T04:33:43.940Z,8.40
2019-03-09T04:36:15.104Z,8.40
2019-03-09T04:38:43.605Z,8.40
2019-03-09T04:41:15.277Z,8.40
2019-03-09T04:43:44.928Z,8.40
2019-03-09T04:46:14.396Z,8.40
2019-03-09T04:48:44.028Z,8.40
2019-03-09T04:51:15.310Z,8.40
2019-03-09T04:53:48.214Z,8.40
2019-03-09T04:56:19.946Z,8.40
2019-03-09T04:58:48.476Z,8.40
2019-03-09T05:01:37.828Z,8.40
2019-03-09T05:04:29.697Z,8.40
2019-03-09T05:07:02.656Z,8.30
2019-03-09T05:12:23.199Z,8.30
2019-03-09T05:14:54.316Z,8.30
2019-03-09T05:17:22.774Z,8.30
2019-03-09T05:19:52.150Z,8.20
2019-03-09T05:22:22.272Z,8.30
2019-03-09T05:24:50.816Z,8.20
2019-03-09T05:27:19.379Z,8.20
2019-03-09T05:29:50.923Z,8.20
2019-03-09T05:32:19.595Z,8.20
2019-03-09T05:34:49.393Z,8.20
2019-03-09T05:37:17.884Z,8.20
2019-03-09T05:39:46.476Z,8.20
2019-03-09T05:42:15.042Z,8.20
2019-03-09T05:44:46.966Z,8.10
2019-03-09T05:47:15.638Z,8.10
2019-03-09T05:49:44.162Z,8.20
2019-03-09T05:52:21.623Z,8.10
2019-03-09T05:54:50.159Z,8.10
2019-03-09T05:57:18.729Z,8.10
2019-03-09T05:59:47.184Z,8.20
2019-03-09T06:02:15.717Z,8.20
2019-03-09T06:04:44.183Z,8.20
2019-03-09T06:07:12.679Z,8.30
2019-03-09T06:09:42.180Z,8.30
2019-03-09T06:12:10.638Z,8.30
2019-03-09T06:14:43.587Z,8.30
2019-03-09T06:17:12.107Z,8.30
2019-03-09T06:19:42.054Z,8.30
2019-03-09T06:22:10.523Z,8.40
2019-03-09T06:24:42.106Z,8.40
2019-03-09T06:27:10.571Z,8.40
2019-03-09T06:29:41.683Z,8.40
2019-03-09T06:32:35.982Z,8.40
2019-03-09T06:35:07.535Z,8.40
2019-03-09T06:37:37.174Z,8.50
2019-03-09T06:40:08.835Z,8.50
2019-03-09T06:42:46.260Z,8.50
2019-03-09T06:45:16.410Z,8.60
2019-03-09T06:47:46.606Z,8.60
2019-03-09T06:50:16.826Z,8.60
2019-03-09T06:53:04.733Z,8.60
2019-03-09T06:55:33.311Z,8.60
2019-03-09T06:58:01.840Z,8.60
2019-03-09T07:00:38.524Z,8.70
2019-03-09T07:03:08.482Z,8.70
2019-03-09T07:05:40.036Z,8.70
2019-03-09T07:08:09.391Z,8.70
2019-03-09T07:10:37.854Z,8.70
2019-03-09T07:13:09.366Z,8.70
2019-03-09T07:15:42.710Z,8.70
2019-03-09T07:18:16.425Z,8.80
2019-03-09T07:20:45.029Z,8.80
2019-03-09T07:23:13.516Z,8.80
2019-03-09T07:25:42.045Z,8.80
2019-03-09T07:28:15.156Z,8.80
2019-03-09T07:30:43.800Z,8.90
2019-03-09T07:33:13.864Z,8.90
2019-03-09T07:35:42.330Z,8.90
2019-03-09T07:38:12.382Z,9.00
2019-03-09T07:40:40.906Z,9.00
2019-03-09T07:43:09.370Z,9.00
2019-03-09T07:45:37.920Z,9.10
2019-03-09T07:48:07.390Z,9.10
2019-03-09T07:50:35.998Z,9.10
2019-03-09T07:53:04.568Z,9.10
2019-03-09T07:55:33.382Z,9.20
2019-03-09T07:58:04.053Z,9.20
2019-03-09T08:00:33.704Z,9.30
2019-03-09T08:03:04.362Z,9.30
2019-03-09T08:05:32.822Z,9.30
2019-03-09T08:08:02.202Z,9.30
2019-03-09T08:10:31.167Z,9.40
2019-03-09T08:13:04.073Z,9.40
2019-03-09T08:15:38.661Z,9.40
2019-03-09T08:18:13.119Z,9.50
2019-03-09T08:20:41.585Z,9.50
2019-03-09T08:23:14.743Z,9.50
2019-03-09T08:25:43.239Z,9.50
2019-03-09T08:28:11.763Z,9.50
2019-03-09T08:30:40.236Z,9.60
2019-03-09T08:33:08.811Z,9.60
2019-03-09T08:35:37.271Z,9.60
2019-03-09T08:38:07.267Z,9.60
2019-03-09T08:40:56.622Z,9.60
2019-03-09T08:43:25.086Z,9.70
2019-03-09T08:45:54.561Z,9.70
2019-03-09T08:48:24.012Z,9.70
2019-03-09T08:50:52.557Z,9.70
2019-03-09T08:53:25.574Z,9.70
2019-03-09T08:55:54.097Z,9.70
2019-03-09T08:58:29.581Z,9.70
2019-03-09T09:00:53.796Z,9.80
2019-03-09T09:03:26.038Z,9.80
2019-03-09T09:05:58.175Z,9.90
2019-03-09T09:08:26.645Z,9.90
2019-03-09T09:10:55.105Z,9.90
2019-03-09T09:13:26.617Z,10.00
2019-03-09T09:15:56.399Z,10.00
2019-03-09T09:18:26.952Z,10.10
2019-03-09T09:20:56.785Z,10.10
2019-03-09T09:23:26.268Z,10.20
2019-03-09T09:25:57.551Z,10.20
2019-03-09T09:28:26.112Z,10.30
2019-03-09T09:30:57.123Z,10.20
2019-03-09T09:33:29.681Z,10.20
2019-03-09T09:35:59.582Z,10.20
2019-03-09T09:38:29.761Z,10.20
2019-03-09T09:41:03.846Z,10.20
2019-03-09T09:43:32.423Z,10.20
2019-03-09T09:46:03.713Z,10.20
2019-03-09T09:48:32.174Z,10.20
2019-03-09T09:51:03.358Z,10.20
2019-03-09T09:53:31.881Z,10.30
2019-03-09T09:56:01.988Z,10.30
2019-03-09T09:58:30.493Z,10.20
2019-03-09T10:01:02.131Z,10.20
2019-03-09T10:03:30.884Z,10.20
2019-03-09T10:06:05.862Z,10.20
2019-03-09T10:08:35.682Z,10.20
2019-03-09T10:11:10.056Z,10.20
2019-03-09T10:13:38.578Z,10.20
2019-03-09T10:16:09.874Z,10.30
2019-03-09T10:18:38.351Z,10.30
2019-03-09T10:21:07.811Z,10.30
2019-03-09T10:23:36.405Z,10.40
2019-03-09T10:26:06.535Z,10.40
2019-03-09T10:28:34.990Z,10.50
2019-03-09T10:31:06.628Z,10.70
2019-03-09T10:33:43.182Z,10.80
2019-03-09T10:36:11.638Z,10.90
2019-03-09T10:38:41.359Z,10.90
2019-03-09T10:41:13.192Z,11.00
2019-03-09T10:43:41.672Z,10.90
2019-03-09T10:46:10.128Z,10.90
2019-03-09T10:48:40.061Z,10.90
2019-03-09T10:51:08.700Z,10.80
2019-03-09T10:53:37.189Z,10.80
2019-03-09T10:56:05.674Z,10.90
2019-03-09T10:58:35.773Z,10.90
2019-03-09T11:01:06.136Z,10.90
2019-03-09T11:03:38.198Z,10.90
2019-03-09T11:06:06.800Z,11.00
2019-03-09T11:08:35.474Z,11.00
2019-03-09T11:11:08.102Z,11.10
2019-03-09T11:13:38.700Z,11.10
2019-03-09T11:16:08.106Z,11.20
2019-03-09T11:18:36.562Z,11.40
2019-03-09T11:21:09.562Z,11.40
2019-03-09T11:23:38.106Z,11.50
2019-03-09T11:26:06.627Z,11.60
2019-03-09T11:28:35.127Z,11.60
2019-03-09T11:31:03.689Z,11.70
2019-03-09T11:33:33.486Z,11.80
2019-03-09T11:36:03.388Z,11.90
2019-03-09T11:38:36.772Z,12.00
2019-03-09T11:41:05.242Z,12.10
2019-03-09T11:43:37.405Z,12.20
2019-03-09T11:46:05.888Z,12.50
2019-03-09T11:48:35.889Z,12.70
2019-03-09T11:51:04.389Z,12.70
2019-03-09T11:53:36.498Z,12.50
2019-03-09T11:56:05.074Z,12.20
2019-03-09T11:58:38.157Z,12.00
2019-03-09T12:01:08.552Z,11.90
2019-03-09T12:03:37.004Z,11.80
2019-03-09T12:06:07.724Z,11.80
2019-03-09T12:08:37.663Z,11.80
2019-03-09T12:11:07.877Z,11.90
2019-03-09T12:13:44.285Z,11.90
2019-03-09T12:16:12.795Z,11.90
2019-03-09T12:18:42.267Z,11.80
2019-03-09T12:21:10.804Z,11.80
2019-03-09T12:23:40.297Z,11.90
2019-03-09T12:26:08.753Z,12.00
2019-03-09T12:28:40.311Z,12.10
2019-03-09T12:31:08.779Z,12.10
2019-03-09T12:33:40.085Z,12.10
2019-03-09T12:36:08.585Z,12.00
2019-03-09T12:38:38.928Z,11.90
2019-03-09T12:41:17.389Z,11.70
2019-03-09T12:43:49.689Z,11.40
2019-03-09T12:46:19.810Z,11.00
2019-03-09T12:48:48.339Z,10.60
2019-03-09T12:51:21.142Z,10.30
2019-03-09T12:53:49.601Z,10.00
2019-03-09T12:56:20.163Z,9.90
2019-03-09T12:58:48.743Z,9.70
2019-03-09T13:01:17.193Z,9.50
2019-03-09T13:03:45.951Z,9.50
2019-03-09T13:08:56.575Z,9.20
2019-03-09T13:11:25.109Z,9.20
2019-03-09T13:13:56.541Z,9.20
2019-03-09T13:16:25.091Z,9.20
2019-03-09T13:18:57.421Z,9.20
2019-03-09T13:21:45.305Z,9.20
2019-03-09T13:24:14.780Z,9.10
2019-03-09T13:26:43.450Z,9.10
2019-03-09T13:29:13.597Z,9.10
2019-03-09T13:31:42.124Z,9.20
2019-03-09T13:34:11.849Z,9.20
2019-03-09T13:36:40.347Z,9.30
2019-03-09T13:39:13.997Z,9.30
2019-03-09T13:41:42.525Z,9.40
2019-03-09T13:44:30.360Z,9.40
2019-03-09T13:47:04.174Z,9.50
2019-03-09T13:49:32.195Z,9.50
2019-03-09T13:52:00.739Z,9.50
2019-03-09T13:54:29.348Z,9.40
2019-03-09T13:56:58.873Z,9.20
2019-03-09T13:59:27.483Z,9.20
2019-03-09T14:01:58.214Z,9.10
2019-03-09T14:04:26.878Z,9.20
2019-03-09T14:06:56.511Z,9.30
2019-03-09T14:09:25.047Z,9.50
2019-03-09T14:11:56.230Z,9.80
2019-03-09T14:14:24.956Z,10.00
2019-03-09T14:16:53.716Z,10.20
2019-03-09T14:19:24.462Z,10.30
2019-03-09T14:21:54.528Z,10.50
2019-03-09T14:24:25.799Z,10.50
2019-03-09T14:26:54.336Z,10.50
2019-03-09T14:29:22.785Z,10.40
2019-03-09T14:31:51.357Z,10.30
2019-03-09T14:34:21.412Z,10.30
2019-03-09T14:36:51.187Z,10.30
2019-03-09T14:39:22.758Z,10.30
2019-03-09T14:41:51.218Z,10.30
2019-03-09T14:44:19.814Z,10.30
2019-03-09T14:46:49.542Z,10.20
2019-03-09T14:49:18.078Z,10.20
2019-03-09T14:51:48.004Z,10.20
2019-03-09T14:54:19.230Z,10.20
2019-03-09T14:56:48.720Z,10.00
2019-03-09T14:59:20.006Z,9.90
2019-03-09T15:01:49.448Z,9.90
2019-03-09T15:04:18.177Z,10.00
2019-03-09T15:06:49.386Z,10.10
2019-03-09T15:09:25.638Z,10.20
2019-03-09T15:11:54.104Z,10.10
2019-03-09T15:14:23.772Z,9.60
2019-03-09T15:16:52.226Z,9.10
2019-03-09T15:19:20.712Z,8.90
2019-03-09T15:21:49.268Z,8.80
2019-03-09T15:24:23.834Z,8.90
2019-03-09T15:26:53.914Z,8.90
2019-03-09T15:29:24.591Z,9.00
2019-03-09T15:31:53.110Z,9.10
2019-03-09T15:34:21.570Z,9.30
2019-03-09T15:36:52.935Z,9.40
2019-03-09T15:39:25.626Z,9.60
2019-03-09T15:41:54.129Z,9.60
2019-03-09T15:44:25.379Z,9.70
2019-03-09T15:46:53.842Z,9.70
2019-03-09T15:49:25.001Z,9.80
2019-03-09T15:51:53.930Z,9.70
2019-03-09T15:54:23.749Z,9.20
2019-03-09T15:56:52.217Z,8.60
2019-03-09T15:59:20.797Z,8.10
2019-03-09T16:01:49.504Z,7.90
2019-03-09T16:04:20.803Z,7.70
2019-03-09T16:06:49.353Z,7.60
2019-03-09T16:09:19.487Z,7.60
2019-03-09T16:11:48.001Z,7.70
2019-03-09T16:14:18.032Z,7.80
2019-03-09T16:16:47.485Z,7.90
2019-03-09T16:19:15.959Z,8.00
2019-03-09T16:21:44.557Z,8.20
2019-03-09T16:24:17.342Z,8.30
2019-03-09T16:26:50.369Z,8.50
2019-03-09T16:29:18.687Z,8.60
2019-03-09T16:31:49.562Z,8.60
2019-03-09T16:34:19.322Z,8.70
2019-03-09T16:36:49.411Z,8.70
2019-03-09T16:39:22.477Z,8.70
2019-03-09T16:41:51.569Z,8.70
2019-03-09T16:44:21.737Z,8.70
2019-03-09T16:46:50.200Z,8.70
2019-03-09T16:49:20.198Z,8.70
2019-03-09T16:52:09.641Z,8.80
2019-03-09T16:54:38.247Z,8.80
2019-03-09T16:57:09.526Z,8.80
2019-03-09T16:59:41.253Z,8.80
2019-03-09T17:02:09.715Z,8.70
2019-03-09T17:04:41.245Z,8.70
2019-03-09T17:07:09.759Z,8.70
2019-03-09T17:09:39.761Z,8.70
2019-03-09T17:12:08.407Z,8.80
2019-03-09T17:14:40.804Z,8.80
2019-03-09T17:17:14.293Z,8.80
2019-03-09T17:19:44.307Z,8.80
2019-03-09T17:22:13.902Z,8.80
2019-03-09T17:24:44.347Z,8.80
2019-03-09T17:27:15.765Z,8.80
2019-03-09T17:29:44.317Z,8.80
2019-03-09T17:32:14.212Z,8.80
2019-03-09T17:34:48.490Z,8.80
2019-03-09T17:37:17.285Z,8.80
2019-03-09T17:40:07.079Z,8.70
2019-03-09T17:42:41.357Z,8.70
2019-03-09T17:45:37.806Z,8.70
2019-03-09T17:48:07.965Z,8.70
2019-03-09T17:50:36.492Z,8.70
2019-03-09T17:53:05.397Z,8.70
2019-03-09T17:55:34.745Z,8.70
2019-03-09T17:58:04.900Z,8.70
2019-03-09T18:00:44.204Z,8.60
2019-03-09T18:03:33.592Z,8.60
2019-03-09T18:06:03.456Z,8.60
2019-03-09T18:08:37.142Z,8.60
2019-03-09T18:11:10.983Z,8.60
2019-03-09T18:13:41.928Z,8.50
2019-03-09T18:16:13.058Z,8.50
2019-03-09T18:18:45.906Z,8.50
2019-03-09T18:21:18.738Z,8.50
2019-03-09T18:23:47.266Z,8.40
2019-03-09T18:26:17.550Z,8.40
2019-03-09T18:28:46.010Z,8.40
2019-03-09T18:31:18.328Z,8.40
2019-03-09T18:33:51.113Z,8.40
2019-03-09T18:36:19.672Z,8.40
2019-03-09T18:38:50.082Z,8.40
2019-03-09T18:41:18.554Z,8.40
2019-03-09T18:43:47.036Z,8.50
2019-03-09T18:46:18.508Z,8.50
2019-03-09T18:48:47.899Z,8.50
2019-03-09T18:51:16.573Z,8.50
2019-03-09T18:53:45.047Z,8.50
2019-03-09T18:56:15.469Z,8.50
2019-03-09T18:58:48.013Z,8.50
2019-03-09T19:01:16.480Z,8.60
2019-03-09T19:03:46.113Z,8.60
2019-03-09T19:06:14.638Z,8.60
2019-03-09T19:08:44.639Z,8.60
2019-03-09T19:11:13.164Z,8.60
2019-03-09T19:13:44.799Z,8.60
2019-03-09T19:16:13.252Z,8.60
2019-03-09T19:19:01.910Z,8.70
2019-03-09T19:21:32.103Z,8.70
2019-03-09T19:24:00.563Z,8.70
2019-03-09T19:26:29.133Z,8.70
2019-03-09T19:28:57.880Z,8.70
2019-03-09T19:31:27.965Z,8.70
2019-03-09T19:34:01.912Z,8.70
2019-03-09T19:36:32.971Z,8.70
2019-03-09T19:39:04.638Z,8.60
2019-03-09T19:41:40.204Z,8.60
2019-03-09T19:44:08.701Z,8.70
2019-03-09T19:46:38.775Z,8.70
2019-03-09T19:49:07.265Z,8.60
2019-03-09T19:51:36.890Z,8.60
2019-03-09T19:54:05.348Z,8.60
2019-03-09T19:56:36.112Z,8.60
2019-03-09T19:59:04.577Z,8.60
2019-03-09T20:01:34.644Z,8.50
2019-03-09T20:04:06.219Z,8.50
2019-03-09T20:06:34.741Z,8.50
2019-03-09T20:09:08.754Z,8.40
2019-03-09T20:11:37.393Z,8.40
2019-03-09T20:14:10.270Z,8.40
2019-03-09T20:16:43.117Z,8.40
2019-03-09T20:19:12.915Z,8.40
2019-03-09T20:21:42.322Z,8.30
2019-03-09T20:24:11.064Z,8.20
2019-03-09T20:26:40.986Z,8.20
2019-03-09T20:29:09.491Z,8.10
2019-03-09T20:31:39.137Z,8.10
2019-03-09T20:34:09.207Z,8.00
2019-03-09T20:36:40.873Z,8.00
2019-03-09T20:39:12.596Z,7.90
2019-03-09T20:41:41.117Z,7.90
2019-03-09T20:44:11.450Z,7.90
2019-03-09T20:46:42.108Z,7.90
2019-03-09T20:49:11.614Z,7.90
2019-03-09T20:51:44.526Z,7.90
2019-03-09T20:54:15.113Z,7.80
2019-03-09T20:56:48.289Z,7.80
2019-03-09T20:59:28.507Z,7.80
2019-03-09T21:01:58.425Z,7.80
2019-03-09T21:04:26.904Z,7.80
2019-03-09T21:06:59.643Z,7.80
2019-03-09T21:09:32.045Z,7.80
2019-03-09T21:12:02.077Z,7.90
2019-03-09T21:14:33.752Z,7.80
2019-03-09T21:17:04.861Z,7.80
2019-03-09T21:19:35.938Z,7.80
2019-03-09T21:22:05.859Z,7.80
2019-03-09T21:24:34.370Z,7.80
2019-03-09T21:27:05.724Z,7.80
2019-03-09T21:29:34.213Z,7.70
2019-03-09T21:32:27.272Z,7.70
2019-03-09T21:34:57.394Z,7.70
2019-03-09T21:37:26.895Z,7.70
2019-03-09T21:39:57.981Z,7.70
2019-03-09T21:42:26.428Z,7.70
2019-03-09T21:44:59.799Z,7.70
2019-03-09T21:47:30.825Z,7.70
2019-03-09T21:50:02.096Z,7.70
2019-03-09T21:52:30.643Z,7.70
2019-03-09T21:55:03.245Z,7.60
2019-03-09T21:57:32.994Z,7.60
2019-03-09T22:00:01.479Z,7.60
2019-03-09T22:02:33.804Z,7.70
2019-03-09T22:05:03.271Z,7.60
2019-03-09T22:07:33.315Z,7.60
2019-03-09T22:10:01.781Z,7.60
2019-03-09T22:12:30.252Z,7.60
2019-03-09T22:15:04.612Z,7.60
2019-03-09T22:17:33.060Z,7.60
2019-03-09T22:20:01.534Z,7.70
2019-03-09T22:22:32.270Z,7.70
2019-03-09T22:25:00.810Z,7.70
2019-03-09T22:27:29.276Z,7.70
2019-03-09T22:30:00.736Z,7.60
2019-03-09T22:32:30.798Z,7.60
2019-03-09T22:35:01.242Z,7.60
2019-03-09T22:37:29.732Z,7.60
2019-03-09T22:40:00.959Z,7.60
2019-03-09T22:42:29.688Z,7.60
2019-03-09T22:45:01.957Z,7.70
2019-03-09T22:47:30.671Z,7.70
2019-03-09T22:50:01.596Z,7.80
2019-03-09T22:52:31.816Z,7.80
2019-03-09T22:55:00.387Z,7.80
2019-03-09T22:57:32.109Z,7.80
2019-03-09T23:00:00.582Z,7.90
2019-03-09T23:02:34.687Z,7.90
2019-03-09T23:05:06.474Z,7.90
2019-03-09T23:07:34.930Z,7.90
2019-03-09T23:10:04.163Z,7.90
2019-03-09T23:12:32.737Z,7.80
2019-03-09T23:15:03.189Z,7.80
2019-03-09T23:17:31.758Z,7.80
2019-03-09T23:20:01.813Z,7.70
2019-03-09T23:22:30.470Z,7.70
2019-03-09T23:25:02.108Z,7.70
2019-03-09T23:27:30.629Z,7.70
2019-03-09T23:30:00.665Z,7.70
2019-03-09T23:32:29.145Z,7.70
2019-03-09T23:34:59.049Z,7.70
2019-03-09T23:37:27.497Z,7.70
2019-03-09T23:39:55.975Z,7.70
2019-03-09T23:42:24.542Z,7.70
2019-03-09T23:44:54.713Z,7.70
2019-03-09T23:47:23.253Z,7.80
2019-03-09T23:49:51.719Z,7.80
2019-03-09T23:52:21.133Z,7.80
2019-03-09T23:54:49.935Z,7.80
2019-03-09T23:57:21.277Z,7.90
2019-03-09T23:59:52.561Z,7.90
